sensor_id;sensor_type;location;lat;lon;timestamp;temperature;humidity
6986;DHT22;3533;51.246;6.850;2023-02-15T00:01:09;19.40;38.70
6986;DHT22;3533;51.246;6.850;2023-02-15T00:03:35;19.40;38.70
6986;DHT22;3533;51.246;6.850;2023-02-15T00:06:01;19.40;38.60
6986;DHT22;3533;51.246;6.850;2023-02-15T00:08:27;19.40;38.70
6986;DHT22;3533;51.246;6.850;2023-02-15T00:10:53;19.40;38.70
6986;DHT22;3533;51.246;6.850;2023-02-15T00:13:18;19.40;38.70
6986;DHT22;3533;51.246;6.850;2023-02-15T00:15:44;19.40;38.70
6986;DHT22;3533;51.246;6.850;2023-02-15T00:18:10;19.40;38.70
6986;DHT22;3533;51.246;6.850;2023-02-15T00:20:35;19.40;38.70
6986;DHT22;3533;51.246;6.850;2023-02-15T00:23:01;19.40;38.70
6986;DHT22;3533;51.246;6.850;2023-02-15T00:25:26;19.40;38.70
6986;DHT22;3533;51.246;6.850;2023-02-15T00:27:52;19.40;38.70
6986;DHT22;3533;51.246;6.850;2023-02-15T00:30:17;19.40;38.70
6986;DHT22;3533;51.246;6.850;2023-02-15T00:32:43;19.40;38.70
6986;DHT22;3533;51.246;6.850;2023-02-15T00:35:08;19.40;38.70
6986;DHT22;3533;51.246;6.850;2023-02-15T00:37:34;19.40;38.70
6986;DHT22;3533;51.246;6.850;2023-02-15T00:40:00;19.40;38.70
6986;DHT22;3533;51.246;6.850;2023-02-15T00:42:26;19.40;38.70
6986;DHT22;3533;51.246;6.850;2023-02-15T00:44:51;19.40;38.70
6986;DHT22;3533;51.246;6.850;2023-02-15T00:47:17;19.40;38.70
6986;DHT22;3533;51.246;6.850;2023-02-15T00:49:42;19.40;38.70
6986;DHT22;3533;51.246;6.850;2023-02-15T00:52:08;19.40;38.70
6986;DHT22;3533;51.246;6.850;2023-02-15T00:54:34;19.40;38.70
6986;DHT22;3533;51.246;6.850;2023-02-15T00:57:00;19.30;38.60
6986;DHT22;3533;51.246;6.850;2023-02-15T00:59:25;19.30;38.60
6986;DHT22;3533;51.246;6.850;2023-02-15T01:01:51;19.30;38.60
6986;DHT22;3533;51.246;6.850;2023-02-15T01:04:17;19.30;38.60
6986;DHT22;3533;51.246;6.850;2023-02-15T01:06:43;19.30;38.70
6986;DHT22;3533;51.246;6.850;2023-02-15T01:09:08;19.30;38.60
6986;DHT22;3533;51.246;6.850;2023-02-15T01:11:34;19.30;38.60
6986;DHT22;3533;51.246;6.850;2023-02-15T01:14:00;19.30;38.60
6986;DHT22;3533;51.246;6.850;2023-02-15T01:16:27;19.30;38.70
6986;DHT22;3533;51.246;6.850;2023-02-15T01:18:53;19.30;38.60
6986;DHT22;3533;51.246;6.850;2023-02-15T01:21:22;19.30;38.60
6986;DHT22;3533;51.246;6.850;2023-02-15T01:23:48;19.30;38.60
6986;DHT22;3533;51.246;6.850;2023-02-15T01:26:14;19.30;38.60
6986;DHT22;3533;51.246;6.850;2023-02-15T01:28:40;19.30;39.30
6986;DHT22;3533;51.246;6.850;2023-02-15T01:31:11;19.30;38.60
6986;DHT22;3533;51.246;6.850;2023-02-15T01:33:38;19.30;38.60
6986;DHT22;3533;51.246;6.850;2023-02-15T01:36:04;19.30;38.60
6986;DHT22;3533;51.246;6.850;2023-02-15T01:38:30;19.30;38.60
6986;DHT22;3533;51.246;6.850;2023-02-15T01:40:55;19.30;38.60
6986;DHT22;3533;51.246;6.850;2023-02-15T01:43:42;19.30;38.60
6986;DHT22;3533;51.246;6.850;2023-02-15T01:46:10;19.30;38.60
6986;DHT22;3533;51.246;6.850;2023-02-15T01:48:47;19.30;38.60
6986;DHT22;3533;51.246;6.850;2023-02-15T01:51:17;19.30;38.60
6986;DHT22;3533;51.246;6.850;2023-02-15T01:53:48;19.30;38.60
6986;DHT22;3533;51.246;6.850;2023-02-15T01:56:22;19.30;38.60
6986;DHT22;3533;51.246;6.850;2023-02-15T01:58:49;19.30;38.60
6986;DHT22;3533;51.246;6.850;2023-02-15T02:01:15;19.30;38.60
6986;DHT22;3533;51.246;6.850;2023-02-15T02:06:16;19.30;38.60
6986;DHT22;3533;51.246;6.850;2023-02-15T02:08:42;19.30;39.30
6986;DHT22;3533;51.246;6.850;2023-02-15T02:11:12;19.30;38.60
6986;DHT22;3533;51.246;6.850;2023-02-15T02:13:42;19.30;38.60
6986;DHT22;3533;51.246;6.850;2023-02-15T02:16:17;19.30;38.60
6986;DHT22;3533;51.246;6.850;2023-02-15T02:24:11;19.20;38.50
6986;DHT22;3533;51.246;6.850;2023-02-15T02:27:06;19.20;38.50
6986;DHT22;3533;51.246;6.850;2023-02-15T02:32:18;19.20;38.50
6986;DHT22;3533;51.246;6.850;2023-02-15T02:35:00;19.20;38.60
6986;DHT22;3533;51.246;6.850;2023-02-15T02:37:35;19.20;38.50
6986;DHT22;3533;51.246;6.850;2023-02-15T02:42:47;19.20;38.50
6986;DHT22;3533;51.246;6.850;2023-02-15T02:45:25;19.20;38.50
6986;DHT22;3533;51.246;6.850;2023-02-15T02:47:55;19.20;38.50
6986;DHT22;3533;51.246;6.850;2023-02-15T02:50:26;19.20;38.50
6986;DHT22;3533;51.246;6.850;2023-02-15T02:52:54;19.20;38.50
6986;DHT22;3533;51.246;6.850;2023-02-15T02:55:41;19.20;38.50
6986;DHT22;3533;51.246;6.850;2023-02-15T02:58:29;19.20;38.50
6986;DHT22;3533;51.246;6.850;2023-02-15T03:01:06;19.20;38.50
6986;DHT22;3533;51.246;6.850;2023-02-15T03:03:38;19.20;38.50
6986;DHT22;3533;51.246;6.850;2023-02-15T03:06:14;19.20;38.60
6986;DHT22;3533;51.246;6.850;2023-02-15T03:08:47;19.20;38.50
6986;DHT22;3533;51.246;6.850;2023-02-15T03:11:13;19.20;38.50
6986;DHT22;3533;51.246;6.850;2023-02-15T03:13:39;19.20;38.50
6986;DHT22;3533;51.246;6.850;2023-02-15T03:16:06;19.20;38.60
6986;DHT22;3533;51.246;6.850;2023-02-15T03:19:08;19.20;38.50
6986;DHT22;3533;51.246;6.850;2023-02-15T03:24:17;19.20;38.50
6986;DHT22;3533;51.246;6.850;2023-02-15T03:26:47;19.20;38.50
6986;DHT22;3533;51.246;6.850;2023-02-15T03:29:15;19.20;38.50
6986;DHT22;3533;51.246;6.850;2023-02-15T03:31:45;19.20;38.60
6986;DHT22;3533;51.246;6.850;2023-02-15T03:34:13;19.20;38.50
6986;DHT22;3533;51.246;6.850;2023-02-15T03:36:50;19.20;38.50
6986;DHT22;3533;51.246;6.850;2023-02-15T03:39:27;19.20;38.50
6986;DHT22;3533;51.246;6.850;2023-02-15T03:42:11;19.20;38.50
6986;DHT22;3533;51.246;6.850;2023-02-15T03:45:21;19.10;38.80
6986;DHT22;3533;51.246;6.850;2023-02-15T03:47:42;19.10;38.40
6986;DHT22;3533;51.246;6.850;2023-02-15T03:50:19;19.10;38.40
6986;DHT22;3533;51.246;6.850;2023-02-15T03:53:07;19.20;38.50
6986;DHT22;3533;51.246;6.850;2023-02-15T03:55:34;19.10;38.40
6986;DHT22;3533;51.246;6.850;2023-02-15T03:58:01;19.10;38.40
6986;DHT22;3533;51.246;6.850;2023-02-15T04:00:57;19.10;38.40
6986;DHT22;3533;51.246;6.850;2023-02-15T04:04:09;19.10;38.40
6986;DHT22;3533;51.246;6.850;2023-02-15T04:06:37;19.10;38.40
6986;DHT22;3533;51.246;6.850;2023-02-15T04:09:02;19.10;38.40
6986;DHT22;3533;51.246;6.850;2023-02-15T04:11:46;19.10;38.40
6986;DHT22;3533;51.246;6.850;2023-02-15T04:14:12;19.10;38.40
6986;DHT22;3533;51.246;6.850;2023-02-15T04:16:56;19.10;38.40
6986;DHT22;3533;51.246;6.850;2023-02-15T04:19:21;19.10;38.40
6986;DHT22;3533;51.246;6.850;2023-02-15T04:22:06;19.10;38.40
6986;DHT22;3533;51.246;6.850;2023-02-15T04:24:50;19.10;38.40
6986;DHT22;3533;51.246;6.850;2023-02-15T04:27:35;19.10;38.40
6986;DHT22;3533;51.246;6.850;2023-02-15T04:30:00;19.10;38.40
6986;DHT22;3533;51.246;6.850;2023-02-15T04:32:26;19.10;38.40
6986;DHT22;3533;51.246;6.850;2023-02-15T04:34:52;19.10;38.40
6986;DHT22;3533;51.246;6.850;2023-02-15T04:37:18;19.10;38.40
6986;DHT22;3533;51.246;6.850;2023-02-15T04:39:43;19.10;38.40
6986;DHT22;3533;51.246;6.850;2023-02-15T04:42:09;19.10;38.40
6986;DHT22;3533;51.246;6.850;2023-02-15T04:44:34;19.10;38.50
6986;DHT22;3533;51.246;6.850;2023-02-15T04:47:00;19.10;38.50
6986;DHT22;3533;51.246;6.850;2023-02-15T04:49:26;19.10;38.40
6986;DHT22;3533;51.246;6.850;2023-02-15T04:51:51;19.10;38.40
6986;DHT22;3533;51.246;6.850;2023-02-15T04:54:17;19.10;38.40
6986;DHT22;3533;51.246;6.850;2023-02-15T04:56:42;19.10;38.40
6986;DHT22;3533;51.246;6.850;2023-02-15T04:59:11;19.10;38.40
6986;DHT22;3533;51.246;6.850;2023-02-15T05:01:37;19.10;38.40
6986;DHT22;3533;51.246;6.850;2023-02-15T05:04:03;19.10;38.40
6986;DHT22;3533;51.246;6.850;2023-02-15T05:06:29;19.10;38.40
6986;DHT22;3533;51.246;6.850;2023-02-15T05:08:54;19.20;38.50
6986;DHT22;3533;51.246;6.850;2023-02-15T05:11:20;19.20;38.50
6986;DHT22;3533;51.246;6.850;2023-02-15T05:13:46;19.20;38.50
6986;DHT22;3533;51.246;6.850;2023-02-15T05:16:11;19.20;38.40
6986;DHT22;3533;51.246;6.850;2023-02-15T05:18:37;19.30;38.20
6986;DHT22;3533;51.246;6.850;2023-02-15T05:21:02;19.30;38.00
6986;DHT22;3533;51.246;6.850;2023-02-15T05:23:28;19.40;38.00
6986;DHT22;3533;51.246;6.850;2023-02-15T05:25:54;19.40;37.90
6986;DHT22;3533;51.246;6.850;2023-02-15T05:28:38;19.40;37.70
6986;DHT22;3533;51.246;6.850;2023-02-15T05:31:14;19.50;37.80
6986;DHT22;3533;51.246;6.850;2023-02-15T05:33:40;19.50;37.70
6986;DHT22;3533;51.246;6.850;2023-02-15T05:36:07;19.50;37.80
6986;DHT22;3533;51.246;6.850;2023-02-15T05:38:33;19.50;37.80
6986;DHT22;3533;51.246;6.850;2023-02-15T05:40:58;19.50;37.70
6986;DHT22;3533;51.246;6.850;2023-02-15T05:43:25;19.50;37.80
6986;DHT22;3533;51.246;6.850;2023-02-15T05:45:53;19.50;37.80
6986;DHT22;3533;51.246;6.850;2023-02-15T05:48:20;19.50;37.80
6986;DHT22;3533;51.246;6.850;2023-02-15T05:50:46;19.50;37.80
6986;DHT22;3533;51.246;6.850;2023-02-15T05:53:12;19.50;37.70
6986;DHT22;3533;51.246;6.850;2023-02-15T05:55:39;19.50;37.70
6986;DHT22;3533;51.246;6.850;2023-02-15T05:58:05;19.50;37.70
6986;DHT22;3533;51.246;6.850;2023-02-15T06:00:31;19.60;37.80
6986;DHT22;3533;51.246;6.850;2023-02-15T06:02:56;19.60;37.70
6986;DHT22;3533;51.246;6.850;2023-02-15T06:05:22;19.60;37.70
6986;DHT22;3533;51.246;6.850;2023-02-15T06:07:48;19.60;37.80
6986;DHT22;3533;51.246;6.850;2023-02-15T06:10:13;19.60;38.50
6986;DHT22;3533;51.246;6.850;2023-02-15T06:12:39;19.60;37.80
6986;DHT22;3533;51.246;6.850;2023-02-15T06:15:05;19.60;37.80
6986;DHT22;3533;51.246;6.850;2023-02-15T06:17:31;19.60;37.80
6986;DHT22;3533;51.246;6.850;2023-02-15T06:19:57;19.60;37.80
6986;DHT22;3533;51.246;6.850;2023-02-15T06:22:22;19.60;37.80
6986;DHT22;3533;51.246;6.850;2023-02-15T06:24:48;19.60;37.70
6986;DHT22;3533;51.246;6.850;2023-02-15T06:27:13;19.60;37.70
6986;DHT22;3533;51.246;6.850;2023-02-15T06:29:39;19.60;37.80
6986;DHT22;3533;51.246;6.850;2023-02-15T06:32:05;19.60;37.70
6986;DHT22;3533;51.246;6.850;2023-02-15T06:34:31;19.60;37.70
6986;DHT22;3533;51.246;6.850;2023-02-15T06:36:57;19.70;37.70
6986;DHT22;3533;51.246;6.850;2023-02-15T06:39:23;19.70;37.60
6986;DHT22;3533;51.246;6.850;2023-02-15T06:41:48;19.70;37.50
6986;DHT22;3533;51.246;6.850;2023-02-15T06:44:14;19.70;37.50
6986;DHT22;3533;51.246;6.850;2023-02-15T06:46:39;19.70;37.50
6986;DHT22;3533;51.246;6.850;2023-02-15T06:49:05;19.70;37.60
6986;DHT22;3533;51.246;6.850;2023-02-15T06:51:30;19.70;37.60
6986;DHT22;3533;51.246;6.850;2023-02-15T06:53:56;19.70;38.20
6986;DHT22;3533;51.246;6.850;2023-02-15T06:56:21;19.70;37.60
6986;DHT22;3533;51.246;6.850;2023-02-15T06:58:47;19.70;37.50
6986;DHT22;3533;51.246;6.850;2023-02-15T07:01:15;19.70;37.50
6986;DHT22;3533;51.246;6.850;2023-02-15T07:03:40;19.70;37.40
6986;DHT22;3533;51.246;6.850;2023-02-15T07:06:06;19.70;37.40
6986;DHT22;3533;51.246;6.850;2023-02-15T07:08:34;19.70;37.40
6986;DHT22;3533;51.246;6.850;2023-02-15T07:11:00;19.70;38.20
6986;DHT22;3533;51.246;6.850;2023-02-15T07:13:45;19.70;37.40
6986;DHT22;3533;51.246;6.850;2023-02-15T07:16:11;19.70;37.40
6986;DHT22;3533;51.246;6.850;2023-02-15T07:18:38;19.70;37.50
6986;DHT22;3533;51.246;6.850;2023-02-15T07:21:04;19.70;37.50
6986;DHT22;3533;51.246;6.850;2023-02-15T07:23:29;19.70;37.50
6986;DHT22;3533;51.246;6.850;2023-02-15T07:25:58;19.70;37.50
6986;DHT22;3533;51.246;6.850;2023-02-15T07:28:25;19.70;37.50
6986;DHT22;3533;51.246;6.850;2023-02-15T07:30:50;19.70;37.50
6986;DHT22;3533;51.246;6.850;2023-02-15T07:33:16;19.70;37.50
6986;DHT22;3533;51.246;6.850;2023-02-15T07:36:02;19.70;37.50
6986;DHT22;3533;51.246;6.850;2023-02-15T07:38:31;19.70;37.50
6986;DHT22;3533;51.246;6.850;2023-02-15T07:40:58;19.70;37.50
6986;DHT22;3533;51.246;6.850;2023-02-15T07:43:24;19.70;37.40
6986;DHT22;3533;51.246;6.850;2023-02-15T07:45:50;19.70;37.40
6986;DHT22;3533;51.246;6.850;2023-02-15T07:48:15;19.70;37.40
6986;DHT22;3533;51.246;6.850;2023-02-15T07:50:41;19.70;37.40
6986;DHT22;3533;51.246;6.850;2023-02-15T07:53:06;19.70;37.40
6986;DHT22;3533;51.246;6.850;2023-02-15T07:55:32;19.70;37.40
6986;DHT22;3533;51.246;6.850;2023-02-15T07:57:58;19.70;37.40
6986;DHT22;3533;51.246;6.850;2023-02-15T08:00:23;19.70;38.20
6986;DHT22;3533;51.246;6.850;2023-02-15T08:02:54;19.70;37.40
6986;DHT22;3533;51.246;6.850;2023-02-15T08:05:39;19.70;37.40
6986;DHT22;3533;51.246;6.850;2023-02-15T08:08:06;19.70;37.30
6986;DHT22;3533;51.246;6.850;2023-02-15T08:10:32;19.70;37.30
6986;DHT22;3533;51.246;6.850;2023-02-15T08:13:16;19.70;37.30
6986;DHT22;3533;51.246;6.850;2023-02-15T08:15:50;19.70;38.10
6986;DHT22;3533;51.246;6.850;2023-02-15T08:18:16;19.70;37.30
6986;DHT22;3533;51.246;6.850;2023-02-15T08:20:42;19.70;37.30
6986;DHT22;3533;51.246;6.850;2023-02-15T08:23:07;19.70;37.30
6986;DHT22;3533;51.246;6.850;2023-02-15T08:25:33;19.70;37.30
6986;DHT22;3533;51.246;6.850;2023-02-15T08:27:58;19.70;37.30
6986;DHT22;3533;51.246;6.850;2023-02-15T08:30:24;19.70;37.30
6986;DHT22;3533;51.246;6.850;2023-02-15T08:32:50;19.70;37.30
6986;DHT22;3533;51.246;6.850;2023-02-15T08:35:15;19.70;37.20
6986;DHT22;3533;51.246;6.850;2023-02-15T08:37:41;19.70;37.30
6986;DHT22;3533;51.246;6.850;2023-02-15T08:40:07;19.70;37.30
6986;DHT22;3533;51.246;6.850;2023-02-15T08:42:33;19.70;37.30
6986;DHT22;3533;51.246;6.850;2023-02-15T08:44:59;19.70;37.30
6986;DHT22;3533;51.246;6.850;2023-02-15T08:47:25;19.70;36.70
6986;DHT22;3533;51.246;6.850;2023-02-15T08:49:51;19.70;37.30
6986;DHT22;3533;51.246;6.850;2023-02-15T08:52:16;19.70;37.40
6986;DHT22;3533;51.246;6.850;2023-02-15T08:54:42;19.70;37.40
6986;DHT22;3533;51.246;6.850;2023-02-15T08:57:08;19.70;37.40
6986;DHT22;3533;51.246;6.850;2023-02-15T08:59:33;19.70;37.40
6986;DHT22;3533;51.246;6.850;2023-02-15T09:01:59;19.60;37.30
6986;DHT22;3533;51.246;6.850;2023-02-15T09:04:25;19.60;37.30
6986;DHT22;3533;51.246;6.850;2023-02-15T09:06:51;19.60;37.30
6986;DHT22;3533;51.246;6.850;2023-02-15T09:09:18;19.60;37.30
6986;DHT22;3533;51.246;6.850;2023-02-15T09:11:46;19.60;37.30
6986;DHT22;3533;51.246;6.850;2023-02-15T09:14:19;19.60;37.30
6986;DHT22;3533;51.246;6.850;2023-02-15T09:16:47;19.60;37.30
6986;DHT22;3533;51.246;6.850;2023-02-15T09:19:15;19.60;37.40
6986;DHT22;3533;51.246;6.850;2023-02-15T09:21:41;19.60;37.40
6986;DHT22;3533;51.246;6.850;2023-02-15T09:24:09;19.60;37.40
6986;DHT22;3533;51.246;6.850;2023-02-15T09:26:38;19.60;37.50
6986;DHT22;3533;51.246;6.850;2023-02-15T09:29:06;19.60;37.50
6986;DHT22;3533;51.246;6.850;2023-02-15T09:31:43;19.60;37.50
6986;DHT22;3533;51.246;6.850;2023-02-15T09:34:10;19.60;37.50
6986;DHT22;3533;51.246;6.850;2023-02-15T09:36:38;19.60;37.50
6986;DHT22;3533;51.246;6.850;2023-02-15T09:39:18;19.60;37.50
6986;DHT22;3533;51.246;6.850;2023-02-15T09:44:37;19.60;37.50
6986;DHT22;3533;51.246;6.850;2023-02-15T09:58:43;19.50;37.40
6986;DHT22;3533;51.246;6.850;2023-02-15T10:01:27;19.50;37.40
6986;DHT22;3533;51.246;6.850;2023-02-15T10:15:05;19.50;37.50
6986;DHT22;3533;51.246;6.850;2023-02-15T10:28:04;19.50;37.50
6986;DHT22;3533;51.246;6.850;2023-02-15T10:30:47;19.50;37.50
6986;DHT22;3533;51.246;6.850;2023-02-15T10:36:36;19.50;37.50
6986;DHT22;3533;51.246;6.850;2023-02-15T10:38:42;19.50;37.60
6986;DHT22;3533;51.246;6.850;2023-02-15T10:41:30;19.50;37.50
6986;DHT22;3533;51.246;6.850;2023-02-15T10:47:00;19.50;37.60
6986;DHT22;3533;51.246;6.850;2023-02-15T10:55:19;19.50;37.60
6986;DHT22;3533;51.246;6.850;2023-02-15T11:00:36;19.50;37.60
6986;DHT22;3533;51.246;6.850;2023-02-15T11:03:14;19.50;37.60
6986;DHT22;3533;51.246;6.850;2023-02-15T11:08:23;19.50;37.60
6986;DHT22;3533;51.246;6.850;2023-02-15T11:10:56;19.50;37.60
6986;DHT22;3533;51.246;6.850;2023-02-15T11:13:26;19.50;37.60
6986;DHT22;3533;51.246;6.850;2023-02-15T11:16:02;19.50;37.60
6986;DHT22;3533;51.246;6.850;2023-02-15T11:18:36;19.50;38.50
6986;DHT22;3533;51.246;6.850;2023-02-15T11:23:43;19.50;37.60
6986;DHT22;3533;51.246;6.850;2023-02-15T11:29:01;19.50;37.60
6986;DHT22;3533;51.246;6.850;2023-02-15T11:36:45;19.50;37.70
6986;DHT22;3533;51.246;6.850;2023-02-15T11:39:16;19.50;37.60
6986;DHT22;3533;51.246;6.850;2023-02-15T11:41:53;19.50;37.70
6986;DHT22;3533;51.246;6.850;2023-02-15T11:44:37;19.40;37.60
6986;DHT22;3533;51.246;6.850;2023-02-15T11:47:10;19.50;37.70
6986;DHT22;3533;51.246;6.850;2023-02-15T11:49:36;19.40;37.50
6986;DHT22;3533;51.246;6.850;2023-02-15T11:52:06;19.40;37.60
6986;DHT22;3533;51.246;6.850;2023-02-15T11:54:34;19.40;37.60
6986;DHT22;3533;51.246;6.850;2023-02-15T12:02:48;19.40;37.60
6986;DHT22;3533;51.246;6.850;2023-02-15T12:05:18;19.40;37.70
6986;DHT22;3533;51.246;6.850;2023-02-15T12:07:48;19.40;37.70
6986;DHT22;3533;51.246;6.850;2023-02-15T12:10:24;19.40;37.60
6986;DHT22;3533;51.246;6.850;2023-02-15T12:13:15;19.40;37.70
6986;DHT22;3533;51.246;6.850;2023-02-15T12:15:44;19.40;37.60
6986;DHT22;3533;51.246;6.850;2023-02-15T12:18:42;19.40;37.70
6986;DHT22;3533;51.246;6.850;2023-02-15T12:21:15;19.40;37.70
6986;DHT22;3533;51.246;6.850;2023-02-15T12:23:54;19.40;37.70
6986;DHT22;3533;51.246;6.850;2023-02-15T12:26:31;19.40;37.70
6986;DHT22;3533;51.246;6.850;2023-02-15T12:29:01;19.40;37.70
6986;DHT22;3533;51.246;6.850;2023-02-15T12:31:38;19.40;37.70
6986;DHT22;3533;51.246;6.850;2023-02-15T12:34:11;19.40;37.70
6986;DHT22;3533;51.246;6.850;2023-02-15T12:36:56;19.40;37.70
6986;DHT22;3533;51.246;6.850;2023-02-15T12:39:28;19.40;37.70
6986;DHT22;3533;51.246;6.850;2023-02-15T12:44:22;19.40;37.80
6986;DHT22;3533;51.246;6.850;2023-02-15T12:46:57;19.40;37.80
6986;DHT22;3533;51.246;6.850;2023-02-15T12:49:23;19.40;37.70
6986;DHT22;3533;51.246;6.850;2023-02-15T12:52:00;19.40;37.80
6986;DHT22;3533;51.246;6.850;2023-02-15T12:54:41;19.40;37.80
6986;DHT22;3533;51.246;6.850;2023-02-15T12:57:27;19.40;37.80
6986;DHT22;3533;51.246;6.850;2023-02-15T12:59:57;19.40;37.80
6986;DHT22;3533;51.246;6.850;2023-02-15T13:02:27;19.40;37.80
6986;DHT22;3533;51.246;6.850;2023-02-15T13:04:54;19.40;37.90
6986;DHT22;3533;51.246;6.850;2023-02-15T13:07:20;19.40;37.80
6986;DHT22;3533;51.246;6.850;2023-02-15T13:09:47;19.40;37.80
6986;DHT22;3533;51.246;6.850;2023-02-15T13:12:24;19.40;37.80
6986;DHT22;3533;51.246;6.850;2023-02-15T13:14:55;19.40;37.80
6986;DHT22;3533;51.246;6.850;2023-02-15T13:17:28;19.40;37.80
6986;DHT22;3533;51.246;6.850;2023-02-15T13:20:06;19.40;37.80
6986;DHT22;3533;51.246;6.850;2023-02-15T13:22:41;19.40;37.80
6986;DHT22;3533;51.246;6.850;2023-02-15T13:25:28;19.40;37.80
6986;DHT22;3533;51.246;6.850;2023-02-15T13:28:01;19.40;37.80
6986;DHT22;3533;51.246;6.850;2023-02-15T13:30:37;19.40;37.90
6986;DHT22;3533;51.246;6.850;2023-02-15T13:33:33;19.40;38.00
6986;DHT22;3533;51.246;6.850;2023-02-15T13:36:09;19.40;37.90
6986;DHT22;3533;51.246;6.850;2023-02-15T13:39:02;19.40;37.90
6986;DHT22;3533;51.246;6.850;2023-02-15T13:41:35;19.40;37.90
6986;DHT22;3533;51.246;6.850;2023-02-15T13:44:15;19.40;37.90
6986;DHT22;3533;51.246;6.850;2023-02-15T13:47:03;19.40;38.00
6986;DHT22;3533;51.246;6.850;2023-02-15T13:52:27;19.40;37.90
6986;DHT22;3533;51.246;6.850;2023-02-15T13:55:14;19.40;37.90
6986;DHT22;3533;51.246;6.850;2023-02-15T14:18:07;19.30;37.90
6986;DHT22;3533;51.246;6.850;2023-02-15T14:26:51;19.40;38.10
6986;DHT22;3533;51.246;6.850;2023-02-15T14:32:40;19.30;38.40
6986;DHT22;3533;51.246;6.850;2023-02-15T14:35:18;19.30;38.00
6986;DHT22;3533;51.246;6.850;2023-02-15T14:38:11;19.30;38.00
6986;DHT22;3533;51.246;6.850;2023-02-15T14:49:25;19.30;38.00
6986;DHT22;3533;51.246;6.850;2023-02-15T14:51:55;19.30;38.10
6986;DHT22;3533;51.246;6.850;2023-02-15T15:04:35;19.30;38.20
6986;DHT22;3533;51.246;6.850;2023-02-15T15:09:48;19.30;38.10
6986;DHT22;3533;51.246;6.850;2023-02-15T15:14:53;19.30;38.20
6986;DHT22;3533;51.246;6.850;2023-02-15T15:22:28;19.30;38.20
6986;DHT22;3533;51.246;6.850;2023-02-15T15:24:56;19.30;38.20
6986;DHT22;3533;51.246;6.850;2023-02-15T15:35:45;19.30;39.00
6986;DHT22;3533;51.246;6.850;2023-02-15T15:38:41;19.30;38.30
6986;DHT22;3533;51.246;6.850;2023-02-15T15:49:26;19.30;38.30
6986;DHT22;3533;51.246;6.850;2023-02-15T15:51:54;19.30;39.00
6986;DHT22;3533;51.246;6.850;2023-02-15T15:54:24;19.30;39.00
6986;DHT22;3533;51.246;6.850;2023-02-15T15:56:59;19.30;38.30
6986;DHT22;3533;51.246;6.850;2023-02-15T15:59:31;19.30;38.30
6986;DHT22;3533;51.246;6.850;2023-02-15T16:02:04;19.30;39.10
6986;DHT22;3533;51.246;6.850;2023-02-15T16:04:33;19.30;38.30
6986;DHT22;3533;51.246;6.850;2023-02-15T16:09:39;19.30;38.10
6986;DHT22;3533;51.246;6.850;2023-02-15T16:12:15;19.30;38.20
6986;DHT22;3533;51.246;6.850;2023-02-15T16:14:42;19.40;38.20
6986;DHT22;3533;51.246;6.850;2023-02-15T16:17:20;19.40;38.20
6986;DHT22;3533;51.246;6.850;2023-02-15T16:19:47;19.40;38.10
6986;DHT22;3533;51.246;6.850;2023-02-15T16:22:20;19.40;38.10
6986;DHT22;3533;51.246;6.850;2023-02-15T16:25:03;19.40;38.10
6986;DHT22;3533;51.246;6.850;2023-02-15T16:27:43;19.40;38.10
6986;DHT22;3533;51.246;6.850;2023-02-15T16:30:30;19.40;37.90
6986;DHT22;3533;51.246;6.850;2023-02-15T16:33:15;19.50;38.00
6986;DHT22;3533;51.246;6.850;2023-02-15T16:35:58;19.50;38.00
6986;DHT22;3533;51.246;6.850;2023-02-15T16:41:12;19.50;37.90
6986;DHT22;3533;51.246;6.850;2023-02-15T16:43:40;19.50;37.90
6986;DHT22;3533;51.246;6.850;2023-02-15T16:46:13;19.50;37.90
6986;DHT22;3533;51.246;6.850;2023-02-15T16:48:43;19.50;37.90
6986;DHT22;3533;51.246;6.850;2023-02-15T16:51:20;19.50;37.80
6986;DHT22;3533;51.246;6.850;2023-02-15T16:53:49;19.50;37.80
6986;DHT22;3533;51.246;6.850;2023-02-15T16:56:15;19.50;37.80
6986;DHT22;3533;51.246;6.850;2023-02-15T16:58:44;19.50;37.80
6986;DHT22;3533;51.246;6.850;2023-02-15T17:01:13;19.50;37.80
6986;DHT22;3533;51.246;6.850;2023-02-15T17:03:40;19.60;37.90
6986;DHT22;3533;51.246;6.850;2023-02-15T17:06:22;19.60;37.90
6986;DHT22;3533;51.246;6.850;2023-02-15T17:08:51;19.60;37.90
6986;DHT22;3533;51.246;6.850;2023-02-15T17:11:21;19.60;37.90
6986;DHT22;3533;51.246;6.850;2023-02-15T17:16:52;19.60;37.90
6986;DHT22;3533;51.246;6.850;2023-02-15T17:22:06;19.60;37.80
6986;DHT22;3533;51.246;6.850;2023-02-15T17:24:41;19.60;37.80
6986;DHT22;3533;51.246;6.850;2023-02-15T17:27:28;19.60;37.80
6986;DHT22;3533;51.246;6.850;2023-02-15T17:30:12;19.60;37.70
6986;DHT22;3533;51.246;6.850;2023-02-15T17:32:55;19.60;37.80
6986;DHT22;3533;51.246;6.850;2023-02-15T17:35:27;19.60;37.70
6986;DHT22;3533;51.246;6.850;2023-02-15T17:38:19;19.60;37.70
6986;DHT22;3533;51.246;6.850;2023-02-15T17:40:45;19.60;37.70
6986;DHT22;3533;51.246;6.850;2023-02-15T17:43:11;19.60;37.80
6986;DHT22;3533;51.246;6.850;2023-02-15T17:45:43;19.70;37.80
6986;DHT22;3533;51.246;6.850;2023-02-15T17:48:19;19.70;37.70
6986;DHT22;3533;51.246;6.850;2023-02-15T17:50:45;19.70;37.70
6986;DHT22;3533;51.246;6.850;2023-02-15T17:53:11;19.70;37.70
6986;DHT22;3533;51.246;6.850;2023-02-15T17:55:37;19.70;37.60
6986;DHT22;3533;51.246;6.850;2023-02-15T17:58:14;19.70;37.60
6986;DHT22;3533;51.246;6.850;2023-02-15T18:00:48;19.70;37.60
6986;DHT22;3533;51.246;6.850;2023-02-15T18:06:25;19.80;37.70
6986;DHT22;3533;51.246;6.850;2023-02-15T18:09:14;19.70;37.60
6986;DHT22;3533;51.246;6.850;2023-02-15T18:11:58;19.70;37.60
6986;DHT22;3533;51.246;6.850;2023-02-15T18:14:24;19.80;37.70
6986;DHT22;3533;51.246;6.850;2023-02-15T18:16:50;19.70;37.60
6986;DHT22;3533;51.246;6.850;2023-02-15T18:19:24;19.80;37.70
6986;DHT22;3533;51.246;6.850;2023-02-15T18:21:50;19.80;37.50
6986;DHT22;3533;51.246;6.850;2023-02-15T18:24:24;19.90;37.60
6986;DHT22;3533;51.246;6.850;2023-02-15T18:26:51;19.90;37.50
6986;DHT22;3533;51.246;6.850;2023-02-15T18:29:17;19.90;37.50
6986;DHT22;3533;51.246;6.850;2023-02-15T18:31:44;19.90;38.20
6986;DHT22;3533;51.246;6.850;2023-02-15T18:34:27;20.00;37.50
6986;DHT22;3533;51.246;6.850;2023-02-15T18:36:53;20.00;37.50
6986;DHT22;3533;51.246;6.850;2023-02-15T18:39:50;20.00;37.60
6986;DHT22;3533;51.246;6.850;2023-02-15T18:42:22;20.00;37.50
6986;DHT22;3533;51.246;6.850;2023-02-15T18:44:49;20.00;37.60
6986;DHT22;3533;51.246;6.850;2023-02-15T18:47:17;20.00;37.60
6986;DHT22;3533;51.246;6.850;2023-02-15T18:49:43;20.00;37.60
6986;DHT22;3533;51.246;6.850;2023-02-15T18:52:36;20.00;37.60
6986;DHT22;3533;51.246;6.850;2023-02-15T18:55:04;20.00;37.60
6986;DHT22;3533;51.246;6.850;2023-02-15T18:57:37;20.00;37.70
6986;DHT22;3533;51.246;6.850;2023-02-15T19:00:03;20.00;37.80
6986;DHT22;3533;51.246;6.850;2023-02-15T19:02:30;20.00;37.80
6986;DHT22;3533;51.246;6.850;2023-02-15T19:04:55;20.00;37.90
6986;DHT22;3533;51.246;6.850;2023-02-15T19:07:23;20.00;38.00
6986;DHT22;3533;51.246;6.850;2023-02-15T19:09:53;20.00;38.00
6986;DHT22;3533;51.246;6.850;2023-02-15T19:12:20;19.90;37.90
6986;DHT22;3533;51.246;6.850;2023-02-15T19:14:45;19.90;38.00
6986;DHT22;3533;51.246;6.850;2023-02-15T19:17:14;19.90;38.00
6986;DHT22;3533;51.246;6.850;2023-02-15T19:19:41;19.90;38.00
6986;DHT22;3533;51.246;6.850;2023-02-15T19:22:14;19.90;38.00
6986;DHT22;3533;51.246;6.850;2023-02-15T19:24:43;19.90;38.10
6986;DHT22;3533;51.246;6.850;2023-02-15T19:27:36;19.90;38.10